sensor_id;sensor_type;location;lat;lon;timestamp;pressure;altitude;pressure_sealevel;temperature;humidity
76024;BME280;64719;52.124;6.226;2022-12-18T00:01:56;103059.38;;;-6.08;100.00
76024;BME280;64719;52.124;6.226;2022-12-18T00:04:25;103062.78;;;-6.25;100.00
76024;BME280;64719;52.124;6.226;2022-12-18T00:06:52;103063.94;;;-6.30;100.00
76024;BME280;64719;52.124;6.226;2022-12-18T00:09:19;103061.28;;;-6.30;100.00
76024;BME280;64719;52.124;6.226;2022-12-18T00:11:45;103060.97;;;-6.43;100.00
76024;BME280;64719;52.124;6.226;2022-12-18T00:14:14;103062.44;;;-6.36;100.00
76024;BME280;64719;52.124;6.226;2022-12-18T00:16:45;103048.78;;;-6.45;100.00
76024;BME280;64719;52.124;6.226;2022-12-18T00:19:12;103045.63;;;-6.53;100.00
76024;BME280;64719;52.124;6.226;2022-12-18T00:21:39;103049.94;;;-6.71;100.00
76024;BME280;64719;52.124;6.226;2022-12-18T00:24:06;103049.56;;;-6.82;100.00
76024;BME280;64719;52.124;6.226;2022-12-18T00:26:34;103034.84;;;-6.87;100.00
76024;BME280;64719;52.124;6.226;2022-12-18T00:29:04;103038.88;;;-6.79;100.00
76024;BME280;64719;52.124;6.226;2022-12-18T00:31:32;103034.88;;;-6.69;100.00
76024;BME280;64719;52.124;6.226;2022-12-18T00:33:59;103029.19;;;-6.78;100.00
76024;BME280;64719;52.124;6.226;2022-12-18T00:36:27;103035.28;;;-6.78;100.00
76024;BME280;64719;52.124;6.226;2022-12-18T00:38:55;103028.50;;;-6.83;100.00
76024;BME280;64719;52.124;6.226;2022-12-18T00:41:23;103030.47;;;-6.88;100.00
76024;BME280;64719;52.124;6.226;2022-12-18T00:44:10;103040.19;;;-6.89;100.00
76024;BME280;64719;52.124;6.226;2022-12-18T00:46:38;103027.13;;;-6.92;100.00
76024;BME280;64719;52.124;6.226;2022-12-18T00:49:05;103032.22;;;-6.87;100.00
76024;BME280;64719;52.124;6.226;2022-12-18T00:51:31;103039.25;;;-6.88;100.00
76024;BME280;64719;52.124;6.226;2022-12-18T00:53:58;103046.72;;;-6.97;100.00
76024;BME280;64719;52.124;6.226;2022-12-18T00:56:25;103046.25;;;-7.07;100.00
76024;BME280;64719;52.124;6.226;2022-12-18T00:58:51;103042.81;;;-7.09;100.00
76024;BME280;64719;52.124;6.226;2022-12-18T01:01:18;103040.59;;;-7.18;100.00
76024;BME280;64719;52.124;6.226;2022-12-18T01:03:46;103038.00;;;-7.19;100.00
76024;BME280;64719;52.124;6.226;2022-12-18T01:06:14;103039.31;;;-7.29;100.00
76024;BME280;64719;52.124;6.226;2022-12-18T01:08:41;103039.31;;;-7.29;100.00
76024;BME280;64719;52.124;6.226;2022-12-18T01:11:09;103032.19;;;-7.27;100.00
76024;BME280;64719;52.124;6.226;2022-12-18T01:13:35;103039.78;;;-7.20;100.00
76024;BME280;64719;52.124;6.226;2022-12-18T01:16:03;103044.84;;;-7.35;100.00
76024;BME280;64719;52.124;6.226;2022-12-18T01:18:29;103037.41;;;-7.26;100.00
76024;BME280;64719;52.124;6.226;2022-12-18T01:20:57;103024.16;;;-7.24;100.00
76024;BME280;64719;52.124;6.226;2022-12-18T01:23:24;103021.44;;;-7.23;100.00
76024;BME280;64719;52.124;6.226;2022-12-18T01:25:50;103021.44;;;-7.23;100.00
76024;BME280;64719;52.124;6.226;2022-12-18T01:28:17;103029.22;;;-7.20;100.00
76024;BME280;64719;52.124;6.226;2022-12-18T01:30:43;103032.38;;;-7.32;100.00
76024;BME280;64719;52.124;6.226;2022-12-18T01:33:10;103026.22;;;-7.52;100.00
76024;BME280;64719;52.124;6.226;2022-12-18T01:35:40;103026.22;;;-7.52;100.00
76024;BME280;64719;52.124;6.226;2022-12-18T01:38:09;103019.84;;;-7.47;100.00
76024;BME280;64719;52.124;6.226;2022-12-18T01:40:35;103019.19;;;-7.52;100.00
76024;BME280;64719;52.124;6.226;2022-12-18T01:43:02;103023.91;;;-7.60;100.00
76024;BME280;64719;52.124;6.226;2022-12-18T01:45:31;103023.91;;;-7.60;100.00
76024;BME280;64719;52.124;6.226;2022-12-18T01:47:59;103022.19;;;-7.61;100.00
76024;BME280;64719;52.124;6.226;2022-12-18T01:50:31;103029.13;;;-7.58;100.00
76024;BME280;64719;52.124;6.226;2022-12-18T01:53:02;103034.44;;;-7.60;100.00
76024;BME280;64719;52.124;6.226;2022-12-18T01:55:36;103029.63;;;-7.71;100.00
76024;BME280;64719;52.124;6.226;2022-12-18T01:58:04;103027.78;;;-7.69;100.00
76024;BME280;64719;52.124;6.226;2022-12-18T02:00:31;103038.25;;;-7.67;100.00
76024;BME280;64719;52.124;6.226;2022-12-18T02:02:57;103032.50;;;-7.77;100.00
76024;BME280;64719;52.124;6.226;2022-12-18T02:05:33;103032.38;;;-7.74;100.00
76024;BME280;64719;52.124;6.226;2022-12-18T02:08:09;103034.56;;;-7.63;100.00
76024;BME280;64719;52.124;6.226;2022-12-18T02:10:46;103034.88;;;-7.71;100.00
76024;BME280;64719;52.124;6.226;2022-12-18T02:13:20;103038.47;;;-7.73;100.00
76024;BME280;64719;52.124;6.226;2022-12-18T02:15:55;103027.94;;;-7.73;100.00
76024;BME280;64719;52.124;6.226;2022-12-18T02:18:28;103027.53;;;-7.84;100.00
76024;BME280;64719;52.124;6.226;2022-12-18T02:21:00;103034.19;;;-7.97;100.00
76024;BME280;64719;52.124;6.226;2022-12-18T02:23:46;103034.88;;;-7.92;100.00
76024;BME280;64719;52.124;6.226;2022-12-18T02:26:20;103033.28;;;-7.96;100.00
76024;BME280;64719;52.124;6.226;2022-12-18T02:28:53;103033.16;;;-7.93;100.00
76024;BME280;64719;52.124;6.226;2022-12-18T02:31:25;103032.41;;;-7.97;100.00
76024;BME280;64719;52.124;6.226;2022-12-18T02:33:55;103023.22;;;-7.87;100.00
76024;BME280;64719;52.124;6.226;2022-12-18T02:36:23;103032.50;;;-7.77;100.00
76024;BME280;64719;52.124;6.226;2022-12-18T02:38:52;103033.44;;;-7.79;100.00
76024;BME280;64719;52.124;6.226;2022-12-18T02:41:23;103041.19;;;-7.96;100.00
76024;BME280;64719;52.124;6.226;2022-12-18T02:43:56;103041.13;;;-7.95;100.00
76024;BME280;64719;52.124;6.226;2022-12-18T02:46:27;103043.69;;;-7.93;100.00
76024;BME280;64719;52.124;6.226;2022-12-18T02:49:01;103041.31;;;-7.99;100.00
76024;BME280;64719;52.124;6.226;2022-12-18T02:51:37;103043.50;;;-8.10;100.00
76024;BME280;64719;52.124;6.226;2022-12-18T02:54:10;103050.03;;;-7.99;100.00
76024;BME280;64719;52.124;6.226;2022-12-18T02:56:46;103040.91;;;-8.12;100.00
76024;BME280;64719;52.124;6.226;2022-12-18T02:59:19;103037.22;;;-8.08;100.00
76024;BME280;64719;52.124;6.226;2022-12-18T03:01:54;103026.28;;;-7.97;100.00
76024;BME280;64719;52.124;6.226;2022-12-18T03:04:26;103023.78;;;-8.00;100.00
76024;BME280;64719;52.124;6.226;2022-12-18T03:06:57;103028.38;;;-8.05;100.00
76024;BME280;64719;52.124;6.226;2022-12-18T03:09:28;103029.16;;;-8.03;100.00
76024;BME280;64719;52.124;6.226;2022-12-18T03:12:01;103030.78;;;-7.99;100.00
76024;BME280;64719;52.124;6.226;2022-12-18T03:14:49;103027.75;;;-8.12;100.00
76024;BME280;64719;52.124;6.226;2022-12-18T03:17:20;103022.72;;;-8.18;100.00
76024;BME280;64719;52.124;6.226;2022-12-18T03:19:51;103016.69;;;-8.21;100.00
76024;BME280;64719;52.124;6.226;2022-12-18T03:22:20;103012.75;;;-8.31;100.00
76024;BME280;64719;52.124;6.226;2022-12-18T03:24:48;103009.44;;;-8.36;100.00
76024;BME280;64719;52.124;6.226;2022-12-18T03:27:19;103009.78;;;-8.45;100.00
76024;BME280;64719;52.124;6.226;2022-12-18T03:29:49;103008.66;;;-8.38;100.00
76024;BME280;64719;52.124;6.226;2022-12-18T03:32:23;103013.75;;;-8.34;100.00
76024;BME280;64719;52.124;6.226;2022-12-18T03:34:53;103003.88;;;-8.29;100.00
76024;BME280;64719;52.124;6.226;2022-12-18T03:37:22;102998.59;;;-8.29;100.00
76024;BME280;64719;52.124;6.226;2022-12-18T03:39:48;102987.69;;;-8.20;100.00
76024;BME280;64719;52.124;6.226;2022-12-18T03:42:23;102991.19;;;-8.19;100.00
76024;BME280;64719;52.124;6.226;2022-12-18T03:44:56;102983.16;;;-8.16;100.00
76024;BME280;64719;52.124;6.226;2022-12-18T03:47:27;102969.19;;;-8.18;100.00
76024;BME280;64719;52.124;6.226;2022-12-18T03:49:58;102983.06;;;-8.13;100.00
76024;BME280;64719;52.124;6.226;2022-12-18T03:52:33;102984.88;;;-8.15;100.00
76024;BME280;64719;52.124;6.226;2022-12-18T03:55:03;102990.88;;;-8.12;100.00
76024;BME280;64719;52.124;6.226;2022-12-18T03:57:33;102989.31;;;-8.16;100.00
76024;BME280;64719;52.124;6.226;2022-12-18T04:00:03;102990.59;;;-8.04;100.00
76024;BME280;64719;52.124;6.226;2022-12-18T04:02:31;102986.72;;;-7.96;100.00
76024;BME280;64719;52.124;6.226;2022-12-18T04:05:03;102990.16;;;-7.94;100.00
76024;BME280;64719;52.124;6.226;2022-12-18T04:07:31;102985.06;;;-7.98;100.00
76024;BME280;64719;52.124;6.226;2022-12-18T04:09:59;102984.72;;;-7.89;100.00
76024;BME280;64719;52.124;6.226;2022-12-18T04:12:29;102979.94;;;-7.80;100.00
76024;BME280;64719;52.124;6.226;2022-12-18T04:14:57;102979.25;;;-7.85;100.00
76024;BME280;64719;52.124;6.226;2022-12-18T04:17:24;102982.19;;;-7.92;100.00
76024;BME280;64719;52.124;6.226;2022-12-18T04:19:50;102973.72;;;-8.00;100.00
76024;BME280;64719;52.124;6.226;2022-12-18T04:22:17;102970.97;;;-7.97;100.00
76024;BME280;64719;52.124;6.226;2022-12-18T04:24:43;102979.69;;;-7.95;100.00
76024;BME280;64719;52.124;6.226;2022-12-18T04:27:10;102977.91;;;-7.95;100.00
76024;BME280;64719;52.124;6.226;2022-12-18T04:29:36;102975.34;;;-7.96;99.95
76024;BME280;64719;52.124;6.226;2022-12-18T04:32:04;102965.31;;;-8.08;100.00
76024;BME280;64719;52.124;6.226;2022-12-18T04:34:31;102974.59;;;-8.00;100.00
76024;BME280;64719;52.124;6.226;2022-12-18T04:36:58;102975.16;;;-8.13;99.97
76024;BME280;64719;52.124;6.226;2022-12-18T04:39:24;102977.41;;;-8.04;100.00
76024;BME280;64719;52.124;6.226;2022-12-18T04:41:51;102961.00;;;-8.11;100.00
76024;BME280;64719;52.124;6.226;2022-12-18T04:44:17;102961.94;;;-7.90;100.00
76024;BME280;64719;52.124;6.226;2022-12-18T04:46:44;102957.44;;;-7.88;100.00
76024;BME280;64719;52.124;6.226;2022-12-18T04:49:12;102957.25;;;-7.84;100.00
76024;BME280;64719;52.124;6.226;2022-12-18T04:51:38;102959.13;;;-7.86;100.00
76024;BME280;64719;52.124;6.226;2022-12-18T04:54:05;102968.34;;;-7.97;100.00
76024;BME280;64719;52.124;6.226;2022-12-18T04:56:32;102959.16;;;-7.87;100.00
76024;BME280;64719;52.124;6.226;2022-12-18T04:58:58;102962.53;;;-7.84;100.00
76024;BME280;64719;52.124;6.226;2022-12-18T05:01:25;102970.03;;;-7.75;99.96
76024;BME280;64719;52.124;6.226;2022-12-18T05:03:51;102962.88;;;-7.71;100.00
76024;BME280;64719;52.124;6.226;2022-12-18T05:06:19;102966.81;;;-7.81;100.00
76024;BME280;64719;52.124;6.226;2022-12-18T05:08:46;102965.84;;;-8.00;99.53
76024;BME280;64719;52.124;6.226;2022-12-18T05:11:14;102967.69;;;-8.02;99.56
76024;BME280;64719;52.124;6.226;2022-12-18T05:13:42;102965.53;;;-7.93;99.63
76024;BME280;64719;52.124;6.226;2022-12-18T05:16:09;102963.44;;;-7.85;100.00
76024;BME280;64719;52.124;6.226;2022-12-18T05:18:36;102966.28;;;-7.89;100.00
76024;BME280;64719;52.124;6.226;2022-12-18T05:21:03;102968.09;;;-7.91;100.00
76024;BME280;64719;52.124;6.226;2022-12-18T05:23:32;102976.66;;;-8.08;99.53
76024;BME280;64719;52.124;6.226;2022-12-18T05:26:00;102982.94;;;-8.10;100.00
76024;BME280;64719;52.124;6.226;2022-12-18T05:28:29;102982.56;;;-8.01;100.00
76024;BME280;64719;52.124;6.226;2022-12-18T05:30:58;102991.00;;;-8.15;100.00
76024;BME280;64719;52.124;6.226;2022-12-18T05:33:26;102982.63;;;-8.24;100.00
76024;BME280;64719;52.124;6.226;2022-12-18T05:35:54;103002.22;;;-8.31;100.00
76024;BME280;64719;52.124;6.226;2022-12-18T05:38:22;103010.94;;;-8.52;99.27
76024;BME280;64719;52.124;6.226;2022-12-18T05:40:51;103015.78;;;-8.42;99.58
76024;BME280;64719;52.124;6.226;2022-12-18T05:43:18;103024.91;;;-8.50;99.65
76024;BME280;64719;52.124;6.226;2022-12-18T05:45:47;103022.53;;;-8.35;100.00
76024;BME280;64719;52.124;6.226;2022-12-18T05:48:15;103030.06;;;-8.26;99.71
76024;BME280;64719;52.124;6.226;2022-12-18T05:50:43;103039.00;;;-8.30;99.64
76024;BME280;64719;52.124;6.226;2022-12-18T05:53:11;103024.50;;;-8.40;99.69
76024;BME280;64719;52.124;6.226;2022-12-18T05:55:39;103029.34;;;-8.52;99.57
76024;BME280;64719;52.124;6.226;2022-12-18T05:58:08;103016.69;;;-8.66;99.63
76024;BME280;64719;52.124;6.226;2022-12-18T06:00:37;103011.28;;;-8.61;99.97
76024;BME280;64719;52.124;6.226;2022-12-18T06:03:05;103020.31;;;-8.68;99.64
76024;BME280;64719;52.124;6.226;2022-12-18T06:05:34;103017.75;;;-8.70;99.70
76024;BME280;64719;52.124;6.226;2022-12-18T06:08:01;103008.22;;;-8.74;99.72
76024;BME280;64719;52.124;6.226;2022-12-18T06:10:28;103014.94;;;-8.65;99.44
76024;BME280;64719;52.124;6.226;2022-12-18T06:12:54;103011.00;;;-8.54;100.00
76024;BME280;64719;52.124;6.226;2022-12-18T06:15:22;103001.75;;;-8.42;100.00
76024;BME280;64719;52.124;6.226;2022-12-18T06:17:49;102987.78;;;-8.43;99.85
76024;BME280;64719;52.124;6.226;2022-12-18T06:20:16;102996.09;;;-8.32;100.00
76024;BME280;64719;52.124;6.226;2022-12-18T06:22:42;102994.84;;;-8.45;99.82
76024;BME280;64719;52.124;6.226;2022-12-18T06:25:09;102986.91;;;-8.43;99.63
76024;BME280;64719;52.124;6.226;2022-12-18T06:27:35;102978.84;;;-8.39;99.63
76024;BME280;64719;52.124;6.226;2022-12-18T06:30:03;102979.59;;;-8.35;100.00
76024;BME280;64719;52.124;6.226;2022-12-18T06:32:31;102975.09;;;-8.33;99.76
76024;BME280;64719;52.124;6.226;2022-12-18T06:34:58;102983.69;;;-8.28;99.92
76024;BME280;64719;52.124;6.226;2022-12-18T06:37:24;102970.34;;;-8.24;99.68
76024;BME280;64719;52.124;6.226;2022-12-18T06:39:51;102977.97;;;-8.18;99.73
76024;BME280;64719;52.124;6.226;2022-12-18T06:42:17;102969.91;;;-8.35;99.39
76024;BME280;64719;52.124;6.226;2022-12-18T06:44:44;102972.47;;;-8.33;99.44
76024;BME280;64719;52.124;6.226;2022-12-18T06:47:10;102971.97;;;-8.43;99.66
76024;BME280;64719;52.124;6.226;2022-12-18T06:49:38;102962.53;;;-8.48;99.44
76024;BME280;64719;52.124;6.226;2022-12-18T06:52:05;102969.41;;;-8.44;100.00
76024;BME280;64719;52.124;6.226;2022-12-18T06:54:31;102961.06;;;-8.55;100.00
76024;BME280;64719;52.124;6.226;2022-12-18T06:56:58;102955.69;;;-8.52;100.00
76024;BME280;64719;52.124;6.226;2022-12-18T06:59:25;102961.81;;;-8.30;100.00
76024;BME280;64719;52.124;6.226;2022-12-18T07:01:52;102951.75;;;-8.42;100.00
76024;BME280;64719;52.124;6.226;2022-12-18T07:04:18;102940.88;;;-8.33;99.71
76024;BME280;64719;52.124;6.226;2022-12-18T07:06:46;102950.06;;;-8.43;100.00
76024;BME280;64719;52.124;6.226;2022-12-18T07:09:12;102941.13;;;-8.39;99.98
76024;BME280;64719;52.124;6.226;2022-12-18T07:11:39;102936.78;;;-8.40;99.89
76024;BME280;64719;52.124;6.226;2022-12-18T07:14:05;102947.13;;;-8.36;99.82
76024;BME280;64719;52.124;6.226;2022-12-18T07:16:32;102937.00;;;-8.23;99.67
76024;BME280;64719;52.124;6.226;2022-12-18T07:18:58;102941.03;;;-8.16;99.78
76024;BME280;64719;52.124;6.226;2022-12-18T07:21:25;102946.38;;;-8.18;99.46
76024;BME280;64719;52.124;6.226;2022-12-18T07:23:53;102937.88;;;-8.03;99.62
76024;BME280;64719;52.124;6.226;2022-12-18T07:26:21;102944.72;;;-7.99;99.13
76024;BME280;64719;52.124;6.226;2022-12-18T07:28:48;102940.13;;;-7.94;99.09
76024;BME280;64719;52.124;6.226;2022-12-18T07:31:17;102937.22;;;-7.88;99.44
76024;BME280;64719;52.124;6.226;2022-12-18T07:33:45;102934.59;;;-7.88;99.19
76024;BME280;64719;52.124;6.226;2022-12-18T07:36:12;102945.31;;;-7.71;98.75
76024;BME280;64719;52.124;6.226;2022-12-18T07:38:39;102943.59;;;-7.51;99.56
76024;BME280;64719;52.124;6.226;2022-12-18T07:41:08;102940.31;;;-7.56;98.82
76024;BME280;64719;52.124;6.226;2022-12-18T07:43:36;102956.66;;;-7.48;99.41
76024;BME280;64719;52.124;6.226;2022-12-18T07:46:03;102945.72;;;-7.39;99.03
76024;BME280;64719;52.124;6.226;2022-12-18T07:48:30;102951.06;;;-7.21;98.81
76024;BME280;64719;52.124;6.226;2022-12-18T07:50:58;102943.69;;;-7.13;98.92
76024;BME280;64719;52.124;6.226;2022-12-18T07:53:24;102945.19;;;-7.07;98.66
76024;BME280;64719;52.124;6.226;2022-12-18T07:55:55;102938.63;;;-6.99;98.23
76024;BME280;64719;52.124;6.226;2022-12-18T07:58:23;102937.19;;;-7.06;97.73
76024;BME280;64719;52.124;6.226;2022-12-18T08:00:50;102932.06;;;-7.09;97.96
76024;BME280;64719;52.124;6.226;2022-12-18T08:03:17;102923.22;;;-7.08;97.88
76024;BME280;64719;52.124;6.226;2022-12-18T08:05:44;102913.13;;;-6.98;97.36
76024;BME280;64719;52.124;6.226;2022-12-18T08:08:11;102904.38;;;-6.80;96.97
76024;BME280;64719;52.124;6.226;2022-12-18T08:10:37;102887.25;;;-6.72;97.51
76024;BME280;64719;52.124;6.226;2022-12-18T08:13:04;102888.25;;;-6.56;96.79
76024;BME280;64719;52.124;6.226;2022-12-18T08:15:32;102888.47;;;-6.42;96.96
76024;BME280;64719;52.124;6.226;2022-12-18T08:17:59;102880.56;;;-6.25;96.59
76024;BME280;64719;52.124;6.226;2022-12-18T08:20:25;102885.25;;;-6.13;96.56
76024;BME280;64719;52.124;6.226;2022-12-18T08:22:52;102880.16;;;-5.99;96.00
76024;BME280;64719;52.124;6.226;2022-12-18T08:25:19;102879.38;;;-5.84;96.23
76024;BME280;64719;52.124;6.226;2022-12-18T08:27:45;102889.31;;;-5.72;95.28
76024;BME280;64719;52.124;6.226;2022-12-18T08:30:13;102893.19;;;-5.62;95.16
76024;BME280;64719;52.124;6.226;2022-12-18T08:32:41;102885.47;;;-5.49;95.12
76024;BME280;64719;52.124;6.226;2022-12-18T08:35:08;102890.38;;;-5.41;94.51
76024;BME280;64719;52.124;6.226;2022-12-18T08:37:37;102894.94;;;-5.28;94.08
76024;BME280;64719;52.124;6.226;2022-12-18T08:40:04;102890.13;;;-5.20;94.02
76024;BME280;64719;52.124;6.226;2022-12-18T08:42:34;102887.84;;;-5.10;93.63
76024;BME280;64719;52.124;6.226;2022-12-18T08:45:18;102877.13;;;-4.92;93.44
76024;BME280;64719;52.124;6.226;2022-12-18T08:47:46;102869.19;;;-4.76;92.60
76024;BME280;64719;52.124;6.226;2022-12-18T08:50:13;102871.00;;;-4.61;92.41
76024;BME280;64719;52.124;6.226;2022-12-18T08:52:40;102876.75;;;-4.53;92.49
76024;BME280;64719;52.124;6.226;2022-12-18T08:55:08;102876.22;;;-4.44;92.12
76024;BME280;64719;52.124;6.226;2022-12-18T08:57:34;102869.47;;;-4.34;92.04
76024;BME280;64719;52.124;6.226;2022-12-18T09:00:01;102879.00;;;-4.32;91.22
76024;BME280;64719;52.124;6.226;2022-12-18T09:02:28;102893.66;;;-4.25;91.34
76024;BME280;64719;52.124;6.226;2022-12-18T09:04:56;102893.97;;;-4.15;90.96
76024;BME280;64719;52.124;6.226;2022-12-18T09:07:22;102900.63;;;-4.08;90.84
76024;BME280;64719;52.124;6.226;2022-12-18T09:09:49;102899.69;;;-4.07;90.87
76024;BME280;64719;52.124;6.226;2022-12-18T09:12:15;102882.09;;;-4.08;90.43
76024;BME280;64719;52.124;6.226;2022-12-18T09:14:42;102890.50;;;-4.02;90.56
76024;BME280;64719;52.124;6.226;2022-12-18T09:17:08;102896.41;;;-3.97;90.39
76024;BME280;64719;52.124;6.226;2022-12-18T09:19:35;102897.66;;;-3.88;90.33
76024;BME280;64719;52.124;6.226;2022-12-18T09:22:03;102891.59;;;-3.74;90.10
76024;BME280;64719;52.124;6.226;2022-12-18T09:24:29;102883.84;;;-3.63;89.54
76024;BME280;64719;52.124;6.226;2022-12-18T09:26:56;102877.63;;;-3.48;88.92
76024;BME280;64719;52.124;6.226;2022-12-18T09:29:22;102877.00;;;-3.24;88.79
76024;BME280;64719;52.124;6.226;2022-12-18T09:31:49;102866.88;;;-3.17;87.98
76024;BME280;64719;52.124;6.226;2022-12-18T09:34:16;102862.59;;;-3.06;87.64
76024;BME280;64719;52.124;6.226;2022-12-18T09:36:43;102852.72;;;-2.90;87.26
76024;BME280;64719;52.124;6.226;2022-12-18T09:39:11;102867.16;;;-2.80;87.21
76024;BME280;64719;52.124;6.226;2022-12-18T09:41:41;102876.25;;;-2.70;86.24
76024;BME280;64719;52.124;6.226;2022-12-18T09:44:22;102882.56;;;-2.44;86.20
76024;BME280;64719;52.124;6.226;2022-12-18T09:46:54;102879.59;;;-2.40;85.41
76024;BME280;64719;52.124;6.226;2022-12-18T09:49:26;102889.50;;;-2.15;86.23
76024;BME280;64719;52.124;6.226;2022-12-18T09:51:58;102875.13;;;-2.25;85.44
76024;BME280;64719;52.124;6.226;2022-12-18T09:54:33;102867.88;;;-2.23;85.06
76024;BME280;64719;52.124;6.226;2022-12-18T09:57:02;102861.25;;;-2.04;84.89
76024;BME280;64719;52.124;6.226;2022-12-18T09:59:32;102858.69;;;-1.78;84.56
76024;BME280;64719;52.124;6.226;2022-12-18T10:02:00;102874.56;;;-1.52;83.71
76024;BME280;64719;52.124;6.226;2022-12-18T10:04:34;102859.47;;;-1.51;83.30
76024;BME280;64719;52.124;6.226;2022-12-18T10:07:07;102862.28;;;-1.79;82.39
76024;BME280;64719;52.124;6.226;2022-12-18T10:09:41;102854.09;;;-1.76;82.72
76024;BME280;64719;52.124;6.226;2022-12-18T10:12:19;102851.22;;;-1.73;83.13
76024;BME280;64719;52.124;6.226;2022-12-18T10:14:52;102836.22;;;-1.74;83.33
76024;BME280;64719;52.124;6.226;2022-12-18T10:17:27;102827.50;;;-1.64;83.05
76024;BME280;64719;52.124;6.226;2022-12-18T10:20:02;102828.25;;;-1.62;83.47
76024;BME280;64719;52.124;6.226;2022-12-18T10:22:39;102825.16;;;-1.68;82.75
76024;BME280;64719;52.124;6.226;2022-12-18T10:25:17;102819.63;;;-1.65;82.38
76024;BME280;64719;52.124;6.226;2022-12-18T10:27:47;102797.59;;;-1.67;82.70
76024;BME280;64719;52.124;6.226;2022-12-18T10:30:17;102793.97;;;-1.79;81.73
76024;BME280;64719;52.124;6.226;2022-12-18T10:32:44;102799.19;;;-1.77;82.29
76024;BME280;64719;52.124;6.226;2022-12-18T10:35:16;102802.38;;;-1.60;82.15
76024;BME280;64719;52.124;6.226;2022-12-18T10:38:06;102817.63;;;-1.37;82.26
76024;BME280;64719;52.124;6.226;2022-12-18T10:40:48;102810.72;;;-1.39;81.20
76024;BME280;64719;52.124;6.226;2022-12-18T10:43:20;102805.91;;;-1.34;80.92
76024;BME280;64719;52.124;6.226;2022-12-18T10:46:02;102801.00;;;-1.40;81.13
76024;BME280;64719;52.124;6.226;2022-12-18T10:48:31;102781.63;;;-1.55;81.50
76024;BME280;64719;52.124;6.226;2022-12-18T10:50:58;102773.63;;;-1.67;81.75
76024;BME280;64719;52.124;6.226;2022-12-18T10:53:28;102774.06;;;-1.73;81.44
76024;BME280;64719;52.124;6.226;2022-12-18T10:56:00;102764.59;;;-1.77;81.48
76024;BME280;64719;52.124;6.226;2022-12-18T10:58:28;102754.81;;;-1.77;81.47
76024;BME280;64719;52.124;6.226;2022-12-18T11:01:05;102757.91;;;-1.83;81.09
76024;BME280;64719;52.124;6.226;2022-12-18T11:03:34;102769.16;;;-1.79;80.91
76024;BME280;64719;52.124;6.226;2022-12-18T11:06:05;102752.16;;;-1.77;81.62
76024;BME280;64719;52.124;6.226;2022-12-18T11:08:32;102761.72;;;-1.74;81.30
76024;BME280;64719;52.124;6.226;2022-12-18T11:10:59;102772.47;;;-1.51;81.33
76024;BME280;64719;52.124;6.226;2022-12-18T11:13:28;102765.22;;;-1.61;81.23
76024;BME280;64719;52.124;6.226;2022-12-18T11:15:55;102759.06;;;-1.62;81.31
76024;BME280;64719;52.124;6.226;2022-12-18T11:18:27;102769.19;;;-1.54;81.08
76024;BME280;64719;52.124;6.226;2022-12-18T11:20:55;102771.31;;;-1.47;81.86
76024;BME280;64719;52.124;6.226;2022-12-18T11:23:23;102775.88;;;-1.36;81.82
76024;BME280;64719;52.124;6.226;2022-12-18T11:25:52;102769.91;;;-1.27;81.13
76024;BME280;64719;52.124;6.226;2022-12-18T11:28:29;102762.16;;;-1.30;81.21
76024;BME280;64719;52.124;6.226;2022-12-18T11:31:31;102759.38;;;-1.41;80.91
76024;BME280;64719;52.124;6.226;2022-12-18T11:34:03;102750.22;;;-1.37;81.31
76024;BME280;64719;52.124;6.226;2022-12-18T11:36:37;102748.41;;;-1.37;81.21
76024;BME280;64719;52.124;6.226;2022-12-18T11:39:11;102738.84;;;-1.39;81.24
76024;BME280;64719;52.124;6.226;2022-12-18T11:41:45;102739.34;;;-1.34;81.26
76024;BME280;64719;52.124;6.226;2022-12-18T11:44:46;102728.19;;;-1.39;81.16
76024;BME280;64719;52.124;6.226;2022-12-18T11:47:21;102731.06;;;-1.42;81.33
76024;BME280;64719;52.124;6.226;2022-12-18T11:49:52;102726.78;;;-1.32;81.32
76024;BME280;64719;52.124;6.226;2022-12-18T11:52:23;102722.75;;;-1.25;81.05
76024;BME280;64719;52.124;6.226;2022-12-18T11:54:51;102726.44;;;-1.28;80.58
76024;BME280;64719;52.124;6.226;2022-12-18T11:57:26;102724.75;;;-1.16;81.08
76024;BME280;64719;52.124;6.226;2022-12-18T12:00:04;102727.75;;;-1.21;79.72
76024;BME280;64719;52.124;6.226;2022-12-18T12:02:48;102716.53;;;-1.13;80.09
76024;BME280;64719;52.124;6.226;2022-12-18T12:05:36;102705.22;;;-1.04;80.61
76024;BME280;64719;52.124;6.226;2022-12-18T12:08:11;102707.03;;;-1.17;79.55
76024;BME280;64719;52.124;6.226;2022-12-18T12:10:49;102702.78;;;-1.07;79.85
76024;BME280;64719;52.124;6.226;2022-12-18T12:13:34;102697.94;;;-1.02;79.54
76024;BME280;64719;52.124;6.226;2022-12-18T12:16:12;102689.00;;;-1.01;79.56
76024;BME280;64719;52.124;6.226;2022-12-18T12:18:54;102670.38;;;-1.01;79.56
76024;BME280;64719;52.124;6.226;2022-12-18T12:21:23;102672.16;;;-1.02;79.42
76024;BME280;64719;52.124;6.226;2022-12-18T12:23:59;102661.94;;;-0.95;79.24
76024;BME280;64719;52.124;6.226;2022-12-18T12:26:33;102662.50;;;-1.03;79.01
76024;BME280;64719;52.124;6.226;2022-12-18T12:29:22;102662.59;;;-0.81;79.07
76024;BME280;64719;52.124;6.226;2022-12-18T12:32:07;102655.50;;;-0.93;79.29
76024;BME280;64719;52.124;6.226;2022-12-18T12:34:45;102664.59;;;-0.95;79.23
76024;BME280;64719;52.124;6.226;2022-12-18T12:37:20;102659.03;;;-0.92;79.26
76024;BME280;64719;52.124;6.226;2022-12-18T12:39:52;102668.72;;;-0.91;78.96
76024;BME280;64719;52.124;6.226;2022-12-18T12:42:27;102664.06;;;-1.00;78.66
76024;BME280;64719;52.124;6.226;2022-12-18T12:45:16;102655.00;;;-0.98;78.56
76024;BME280;64719;52.124;6.226;2022-12-18T12:47:48;102650.22;;;-1.05;79.59
76024;BME280;64719;52.124;6.226;2022-12-18T12:50:17;102648.31;;;-1.03;79.86
76024;BME280;64719;52.124;6.226;2022-12-18T12:52:47;102659.38;;;-0.97;79.74
76024;BME280;64719;52.124;6.226;2022-12-18T12:55:17;102648.84;;;-0.98;79.43
76024;BME280;64719;52.124;6.226;2022-12-18T12:57:48;102635.22;;;-1.06;79.14
76024;BME280;64719;52.124;6.226;2022-12-18T13:00:18;102639.78;;;-1.08;79.29